Hubbard Woods, Illinois
Current Conditions -  °F | °C
As of 10:52 AM on Sunday 21 Dec 2014 (Local Time) from KPWK Reporting Station
Haze Haze  
Wind Chill: 27°   Ceiling: 2600
Heat Index: 35°   Visibility: 6mi
Dew Point: 28°   Wind: 10mph
Humidity: 76%   Direction: 180°S
Pressure: 30.18"   Gusts: NA
Location:  42.1029°N, 87.7571°W
Report Text: KPWK 211652Z 18009KT 6SM HZ BKN026 OVC036 02/M02 A3018 RMK AO2 SLP228 T00171022
Loading
Personal Weather Stations






























Interactive Weather Map New forecast layout! Learn more

10-Day Weather Forecast

Advertisements
Track Severe Weather on mobile